Time;durP1;ratioP1;P1;durP2;ratioP2;P2;SDS_P1;SDS_P2;PMS_P1;PMS_P2;Temp;Humidity;BMP_temperature;BMP_pressure;BME280_temperature;BME280_humidity;BME280_pressure;Samples;Min_cycle;Max_cycle;Signal;HPM_P1;HPM_P2
2022/04/12 00:06:38;;;;;;;13.80;7.27;;;9.30;67.40;;;;;;20910024;28;20249;-60
2022/04/12 00:16:40;;;;;;;14.23;6.60;;;9.10;68.30;;;;;;20898336;28;20221;-59
2022/04/12 00:26:42;;;;;;;12.50;6.00;;;9.00;68.50;;;;;;20900371;28;20335;-59
2022/04/12 00:36:43;;;;;;;10.43;6.73;;;9.00;69.20;;;;;;20924168;28;20310;-60
2022/04/12 00:46:46;;;;;;;10.67;7.17;;;9.00;69.40;;;;;;20922713;28;20227;-59
2022/04/12 00:56:48;;;;;;;12.97;6.37;;;8.80;69.60;;;;;;20922037;28;20260;-60
2022/04/12 01:06:50;;;;;;;16.93;5.97;;;8.70;70.20;;;;;;20882164;28;20575;-60
2022/04/12 01:16:52;;;;;;;9.47;5.87;;;8.70;70.90;;;;;;20838630;28;20654;-60
2022/04/12 01:26:54;;;;;;;20.03;6.93;;;8.60;71.20;;;;;;20837154;28;20713;-59
2022/04/12 01:36:56;;;;;;;14.10;6.93;;;8.50;71.50;;;;;;20837378;28;20666;-59
2022/04/12 01:46:57;;;;;;;11.03;6.07;;;8.30;72.00;;;;;;20836102;28;20245;-65
2022/04/12 01:56:59;;;;;;;11.00;6.47;;;8.30;72.70;;;;;;20835608;28;20572;-59
2022/04/12 02:07:01;;;;;;;12.97;6.53;;;8.30;73.00;;;;;;20834308;28;20640;-60
2022/04/12 02:17:03;;;;;;;8.50;6.57;;;8.00;73.60;;;;;;20833232;28;20206;-60
2022/04/12 02:27:04;;;;;;;13.03;6.37;;;7.90;74.10;;;;;;20832437;28;20345;-60
2022/04/12 02:37:06;;;;;;;11.27;6.60;;;7.80;74.30;;;;;;20831685;28;20315;-67
2022/04/12 02:47:07;;;;;;;9.33;6.80;;;7.60;74.30;;;;;;20831198;28;20270;-61
2022/04/12 02:57:09;;;;;;;12.43;6.80;;;7.60;75.00;;;;;;20830566;28;20216;-61
2022/04/12 03:07:11;;;;;;;13.30;6.73;;;;;;;;;;20830165;28;20282;-60
2022/04/12 03:17:13;;;;;;;9.47;6.40;;;7.60;75.40;;;;;;20829855;28;20205;-59
2022/04/12 03:27:15;;;;;;;11.50;6.80;;;7.50;75.60;;;;;;20829346;28;20241;-60
2022/04/12 03:37:17;;;;;;;11.03;6.93;;;7.50;75.70;;;;;;20829061;28;20221;-60
2022/04/12 03:47:18;;;;;;;12.47;7.40;;;7.40;75.70;;;;;;20828466;28;20235;-59
2022/04/12 03:57:20;;;;;;;11.10;7.20;;;7.40;75.80;;;;;;20845415;28;20683;-60
2022/04/12 04:07:23;;;;;;;11.60;7.00;;;7.40;76.00;;;;;;20844669;28;20229;-60
2022/04/12 04:17:24;;;;;;;12.07;7.53;;;7.30;76.10;;;;;;20852936;28;20208;-61
2022/04/12 04:27:28;;;;;;;17.20;7.13;;;7.20;76.60;;;;;;20841588;28;20294;-59
2022/04/12 04:37:30;;;;;;;14.77;7.27;;;7.20;77.10;;;;;;20900577;28;20272;-61
2022/04/12 04:47:32;;;;;;;14.70;7.60;;;7.30;77.30;;;;;;20915055;28;20234;-61
2022/04/12 04:57:41;;;;;;;17.47;8.00;;;7.30;77.60;;;;;;20921301;28;20263;-60
2022/04/12 05:07:46;;;;;;;20.63;7.47;;;7.20;77.80;;;;;;20898030;28;20227;-60
2022/04/12 05:17:52;;;;;;;21.80;8.30;;;7.30;78.10;;;;;;20837317;28;20217;-59
2022/04/12 05:27:54;;;;;;;20.53;8.10;;;7.30;78.10;;;;;;20834382;28;20267;-60
2022/04/12 05:37:56;;;;;;;17.33;8.67;;;7.40;78.50;;;;;;20835727;28;20311;-61
2022/04/12 05:47:58;;;;;;;19.63;8.90;;;7.40;78.50;;;;;;20835056;28;20678;-63
2022/04/12 05:58:03;;;;;;;25.27;8.80;;;7.60;79.00;;;;;;20833881;28;20657;-58
2022/04/12 06:08:05;;;;;;;23.33;8.57;;;7.70;79.60;;;;;;20881557;28;20233;-59
2022/04/12 06:18:07;;;;;;;19.13;9.57;;;7.90;79.90;;;;;;20912812;28;20209;-61
2022/04/12 06:28:09;;;;;;;25.20;10.47;;;8.20;80.50;;;;;;20909724;28;20715;-60
2022/04/12 06:38:11;;;;;;;21.87;9.10;;;8.40;80.50;;;;;;20910909;28;20210;-61
2022/04/12 06:48:12;;;;;;;25.37;9.63;;;8.50;80.10;;;;;;20904037;28;20252;-62
2022/04/12 06:58:14;;;;;;;51.17;25.87;;;8.80;80.20;;;;;;20837588;28;20263;-66
2022/04/12 07:08:16;;;;;;;58.30;30.40;;;9.10;79.60;;;;;;20909443;28;20592;-66
2022/04/12 07:18:23;;;;;;;15.30;9.73;;;9.30;79.10;;;;;;20875215;28;20652;-59
2022/04/12 07:28:25;;;;;;;16.37;8.93;;;9.70;77.80;;;;;;20855773;28;20251;-63
2022/04/12 07:38:26;;;;;;;15.27;6.87;;;10.10;74.90;;;;;;20908965;28;20204;-60
2022/04/12 07:48:28;;;;;;;9.10;6.70;;;10.40;73.80;;;;;;20909238;28;20261;-60
2022/04/12 07:58:30;;;;;;;11.37;6.77;;;10.60;73.20;;;;;;20908153;28;20235;-60
2022/04/12 08:08:32;;;;;;;9.17;6.13;;;11.10;71.50;;;;;;20908024;28;20235;-61
2022/04/12 08:18:34;;;;;;;11.13;6.20;;;11.40;70.10;;;;;;20836044;28;20210;-59
2022/04/12 08:28:36;;;;;;;9.97;5.87;;;11.70;68.60;;;;;;20857451;28;20255;-60
2022/04/12 08:38:38;;;;;;;11.30;6.27;;;12.10;67.60;;;;;;20831663;28;20220;-65
2022/04/12 08:48:40;;;;;;;11.70;6.53;;;12.40;66.30;;;;;;20894643;28;20272;-61
2022/04/12 08:58:42;;;;;;;9.70;5.97;;;12.50;66.10;;;;;;20904970;28;20203;-62
2022/04/12 09:09:12;;;;;;;11.27;5.10;;;12.80;64.90;;;;;;20922336;28;20325;-61
2022/04/12 09:19:13;;;;;;;9.70;5.87;;;13.10;64.30;;;;;;20899614;28;20203;-60
2022/04/12 09:29:15;;;;;;;7.37;4.90;;;13.40;63.60;;;;;;20835659;28;20653;-63
2022/04/12 09:39:20;;;;;;;8.63;5.13;;;13.80;62.20;;;;;;20870387;28;20209;-61
2022/04/12 09:49:22;;;;;;;16.80;4.87;;;14.20;61.00;;;;;;20917268;28;20231;-59
2022/04/12 10:04:20;;;;;;;6.87;4.63;;;14.50;59.20;;;;;;20982720;28;20557;-60
2022/04/12 10:14:23;;;;;;;8.70;4.70;;;14.70;58.70;;;;;;20981124;28;20211;-59
2022/04/12 10:24:27;;;;;;;8.37;4.73;;;14.90;58.70;;;;;;20979637;28;20265;-60
2022/04/12 10:34:29;;;;;;;7.40;4.20;;;15.10;57.50;;;;;;20981047;28;20204;-60
2022/04/12 10:44:42;;;;;;;5.33;4.30;;;15.40;56.30;;;;;;20951729;28;20296;-64
2022/04/12 10:54:46;;;;;;;5.70;4.00;;;15.40;56.70;;;;;;20965172;28;20238;-59
2022/04/12 11:04:48;;;;;;;6.00;4.10;;;15.90;57.20;;;;;;20939126;28;20211;-60
2022/04/12 11:15:26;;;;;;;11.83;4.23;;;16.20;57.40;;;;;;20926409;28;20228;-62
2022/04/12 11:25:28;;;;;;;6.93;4.57;;;16.40;56.30;;;;;;20920532;28;20243;-63
2022/04/12 11:35:32;;;;;;;6.80;4.23;;;16.40;56.70;;;;;;20919642;28;20242;-63
2022/04/12 11:45:34;;;;;;;7.23;4.23;;;16.90;55.70;;;;;;20916348;28;20549;-61
2022/04/12 11:55:37;;;;;;;5.43;4.00;;;17.10;55.80;;;;;;20915556;28;20287;-59
2022/04/12 12:05:38;;;;;;;5.97;4.63;;;17.20;56.50;;;;;;20916945;28;20572;-61
2022/04/12 12:15:40;;;;;;;6.50;4.83;;;17.80;54.60;;;;;;20915165;28;20274;-60
2022/04/12 12:25:46;;;;;;;6.13;4.67;;;18.10;53.90;;;;;;20904044;28;20208;-62
2022/04/12 12:35:48;;;;;;;7.80;4.30;;;18.40;53.30;;;;;;20830744;28;20237;-61
2022/04/12 12:45:50;;;;;;;5.87;4.20;;;18.60;52.90;;;;;;20831017;28;20211;-62
2022/04/12 12:55:52;;;;;;;5.83;3.83;;;18.90;53.00;;;;;;20829775;28;20325;-60
2022/04/12 13:05:59;;;;;;;11.37;3.93;;;19.00;53.50;;;;;;20829357;28;20220;-63
2022/04/12 13:16:00;;;;;;;5.40;3.80;;;19.30;52.80;;;;;;20829299;28;20239;-66
2022/04/12 13:26:02;;;;;;;11.03;3.90;;;19.60;52.10;;;;;;20828785;28;20295;-61
2022/04/12 13:36:04;;;;;;;7.63;3.70;;;20.00;50.90;;;;;;20868405;28;20770;-62
2022/04/12 13:46:06;;;;;;;4.47;2.80;;;20.20;50.90;;;;;;20830333;28;20208;-59
2022/04/12 13:56:08;;;;;;;5.07;2.47;;;20.60;50.00;;;;;;20828703;28;20247;-60
2022/04/12 14:06:10;;;;;;;3.30;2.80;;;22.40;47.70;;;;;;20857639;28;20204;-59
2022/04/12 14:16:13;;;;;;;10.50;2.60;;;23.70;45.40;;;;;;20910400;28;20239;-58
2022/04/12 14:26:16;;;;;;;3.97;1.80;;;23.80;45.60;;;;;;20908684;28;20215;-60
2022/04/12 14:36:18;;;;;;;2.43;1.97;;;24.40;43.00;;;;;;20895798;28;20571;-57
2022/04/12 14:46:19;;;;;;;5.17;2.10;;;24.00;42.80;;;;;;20834583;28;20296;-58
2022/04/12 14:56:22;;;;;;;2.53;1.90;;;23.40;42.90;;;;;;20840640;28;20241;-58
2022/04/12 15:06:23;;;;;;;5.00;2.00;;;23.30;43.40;;;;;;20842491;28;20295;-57
2022/04/12 15:16:25;;;;;;;2.50;1.90;;;22.90;43.20;;;;;;20856838;28;20232;-58
2022/04/12 15:26:27;;;;;;;3.07;1.70;;;22.60;42.80;;;;;;20889827;28;20659;-59
2022/04/12 15:36:29;;;;;;;5.60;1.77;;;22.30;42.80;;;;;;20905913;28;20564;-61
2022/04/12 15:46:30;;;;;;;1.97;1.53;;;22.30;43.30;;;;;;20837360;28;20205;-58
2022/04/12 15:56:32;;;;;;;2.47;1.60;;;22.10;42.80;;;;;;20836456;28;20324;-62
2022/04/12 16:06:34;;;;;;;3.23;1.60;;;21.90;43.00;;;;;;20835869;28;20208;-61
2022/04/12 16:16:36;;;;;;;2.50;1.50;;;21.90;43.10;;;;;;20835928;28;20259;-61
2022/04/12 16:26:38;;;;;;;4.40;2.00;;;21.90;43.50;;;;;;20833226;28;20212;-64
2022/04/12 16:36:40;;;;;;;1.97;1.60;;;21.80;43.20;;;;;;20833768;28;20258;-65
2022/04/12 16:46:42;;;;;;;8.93;3.63;;;21.70;43.20;;;;;;20833515;28;20212;-69
2022/04/12 16:56:45;;;;;;;4.17;1.80;;;21.60;43.70;;;;;;20833400;28;20251;-65
2022/04/12 17:06:47;;;;;;;2.70;2.27;;;21.10;42.60;;;;;;20905545;28;20216;-65
2022/04/12 17:16:48;;;;;;;3.60;2.77;;;20.80;42.80;;;;;;20913250;28;20775;-58
2022/04/12 17:26:51;;;;;;;3.40;2.13;;;20.50;43.40;;;;;;20911756;28;20211;-63
2022/04/12 17:36:53;;;;;;;6.03;3.57;;;20.30;43.70;;;;;;20889885;28;20362;-64
2022/04/12 17:46:55;;;;;;;6.87;3.93;;;20.00;43.20;;;;;;20828813;28;20238;-63
2022/04/12 17:56:57;;;;;;;5.93;2.47;;;19.70;43.10;;;;;;20827444;28;20244;-65
2022/04/12 18:07:04;;;;;;;4.03;2.17;;;19.20;43.40;;;;;;20827670;28;20692;-67
2022/04/12 18:17:06;;;;;;;4.20;1.97;;;18.80;43.60;;;;;;20891665;28;20331;-66
2022/04/12 18:27:08;;;;;;;4.90;1.90;;;18.50;43.80;;;;;;20925264;28;20210;-65
2022/04/12 18:37:09;;;;;;;4.93;2.60;;;18.30;43.90;;;;;;20905015;28;20239;-60
2022/04/12 18:47:12;;;;;;;5.67;2.23;;;18.30;44.70;;;;;;20842709;28;20718;-61
2022/04/12 18:57:14;;;;;;;5.40;3.20;;;17.80;46.10;;;;;;20841632;28;20236;-62
2022/04/12 19:07:16;;;;;;;5.03;2.33;;;17.50;47.50;;;;;;20874049;28;20652;-71
2022/04/12 19:17:18;;;;;;;5.83;2.60;;;17.10;48.40;;;;;;20922425;28;20238;-64
2022/04/12 19:27:21;;;;;;;4.53;3.10;;;16.90;49.10;;;;;;20918095;28;20219;-66
2022/04/12 19:37:23;;;;;;;7.17;4.10;;;16.60;50.00;;;;;;20917269;28;20281;-68
2022/04/12 19:47:24;;;;;;;6.70;4.00;;;16.20;51.00;;;;;;20917809;28;20201;-68
2022/04/12 19:57:26;;;;;;;8.17;3.90;;;16.10;51.60;;;;;;20916168;28;20718;-68
2022/04/12 20:07:28;;;;;;;11.53;6.27;;;16.00;52.40;;;;;;20914851;28;20212;-62
2022/04/12 20:17:30;;;;;;;8.20;4.60;;;15.60;53.00;;;;;;20914987;28;20287;-66
2022/04/12 20:27:32;;;;;;;8.00;3.70;;;15.40;54.10;;;;;;20914011;28;20210;-62
2022/04/12 20:37:36;;;;;;;10.67;4.13;;;15.20;54.50;;;;;;20913097;28;20238;-70
2022/04/12 20:47:38;;;;;;;9.23;5.17;;;15.10;55.10;;;;;;20912087;28;20247;-65
2022/04/12 20:57:40;;;;;;;7.60;4.13;;;14.90;55.80;;;;;;20910053;28;20622;-62
2022/04/12 21:07:43;;;;;;;6.20;4.00;;;14.80;56.20;;;;;;20911107;28;20262;-66
2022/04/12 21:17:46;;;;;;;11.03;4.90;;;14.50;57.10;;;;;;20909104;28;20242;-69
2022/04/12 21:27:48;;;;;;;10.00;4.80;;;14.40;57.90;;;;;;20860358;28;20765;-66
2022/04/12 21:37:49;;;;;;;9.00;4.33;;;14.10;58.90;;;;;;20824910;28;20293;-71
2022/04/12 21:47:51;;;;;;;5.87;3.70;;;14.00;58.90;;;;;;20829284;28;20211;-69
2022/04/12 21:58:02;;;;;;;12.37;3.80;;;13.80;59.30;;;;;;20827892;28;20240;-70
2022/04/12 22:08:06;;;;;;;6.87;4.20;;;13.80;59.60;;;;;;20828078;28;20218;-65
2022/04/12 22:18:08;;;;;;;7.00;3.80;;;13.60;60.00;;;;;;20843315;28;20246;-68
2022/04/12 22:28:10;;;;;;;7.13;4.10;;;13.40;60.40;;;;;;20872196;28;20206;-67
2022/04/12 22:38:12;;;;;;;7.27;3.83;;;13.20;61.10;;;;;;20917221;28;20303;-72
2022/04/12 22:48:13;;;;;;;8.87;4.27;;;13.20;61.10;;;;;;20918918;28;20705;-62
2022/04/12 22:58:15;;;;;;;8.63;4.63;;;13.00;63.40;;;;;;20911091;28;20246;-63
2022/04/12 23:08:18;;;;;;;6.77;4.57;;;;;;;;;;20918754;28;20288;-60
2022/04/12 23:18:19;;;;;;;8.87;4.20;;;12.60;65.10;;;;;;20923320;28;20228;-60
2022/04/12 23:28:21;;;;;;;7.00;4.40;;;12.40;65.20;;;;;;20924456;28;20284;-63
2022/04/12 23:38:23;;;;;;;8.87;4.03;;;12.30;65.70;;;;;;20921422;28;20722;-62
2022/04/12 23:48:25;;;;;;;7.83;4.20;;;12.40;66.50;;;;;;20920459;28;20203;-71
2022/04/12 23:58:26;;;;;;;9.47;4.07;;;12.20;66.60;;;;;;20918961;28;20241;-72
